sensor_id;sensor_type;location;lat;lon;timestamp;P1;durP1;ratioP1;P2;durP2;ratioP2
78410;SDS011;67706;51.074;-1.796;2023-09-07T00:01:08;18.45;;;10.98;;
78410;SDS011;67706;51.074;-1.796;2023-09-07T00:03:34;14.15;;;10.45;;
78410;SDS011;67706;51.074;-1.796;2023-09-07T00:06:06;15.02;;;10.05;;
78410;SDS011;67706;51.074;-1.796;2023-09-07T00:08:32;15.50;;;9.73;;
78410;SDS011;67706;51.074;-1.796;2023-09-07T00:11:02;18.80;;;11.25;;
78410;SDS011;67706;51.074;-1.796;2023-09-07T00:13:28;17.35;;;10.85;;
78410;SDS011;67706;51.074;-1.796;2023-09-07T00:15:57;18.88;;;12.10;;
78410;SDS011;67706;51.074;-1.796;2023-09-07T00:18:24;14.25;;;9.55;;
78410;SDS011;67706;51.074;-1.796;2023-09-07T00:20:50;16.55;;;10.88;;
78410;SDS011;67706;51.074;-1.796;2023-09-07T00:23:16;16.38;;;10.13;;
78410;SDS011;67706;51.074;-1.796;2023-09-07T00:25:42;15.80;;;9.30;;
78410;SDS011;67706;51.074;-1.796;2023-09-07T00:28:08;15.10;;;9.68;;
78410;SDS011;67706;51.074;-1.796;2023-09-07T00:30:34;18.88;;;10.45;;
78410;SDS011;67706;51.074;-1.796;2023-09-07T00:33:00;18.23;;;10.15;;
78410;SDS011;67706;51.074;-1.796;2023-09-07T00:35:26;16.35;;;10.48;;
78410;SDS011;67706;51.074;-1.796;2023-09-07T00:37:52;15.10;;;8.95;;
78410;SDS011;67706;51.074;-1.796;2023-09-07T00:40:20;17.42;;;8.98;;
78410;SDS011;67706;51.074;-1.796;2023-09-07T00:42:47;18.65;;;9.77;;
78410;SDS011;67706;51.074;-1.796;2023-09-07T00:45:13;17.23;;;9.52;;
78410;SDS011;67706;51.074;-1.796;2023-09-07T00:47:39;12.05;;;8.73;;
78410;SDS011;67706;51.074;-1.796;2023-09-07T00:50:06;13.43;;;8.85;;
78410;SDS011;67706;51.074;-1.796;2023-09-07T00:52:32;14.68;;;9.25;;
78410;SDS011;67706;51.074;-1.796;2023-09-07T00:55:01;14.30;;;9.02;;
78410;SDS011;67706;51.074;-1.796;2023-09-07T00:57:29;17.40;;;10.13;;
78410;SDS011;67706;51.074;-1.796;2023-09-07T00:59:56;20.52;;;10.02;;
78410;SDS011;67706;51.074;-1.796;2023-09-07T01:02:22;18.40;;;10.13;;
78410;SDS011;67706;51.074;-1.796;2023-09-07T01:04:50;15.05;;;9.07;;
78410;SDS011;67706;51.074;-1.796;2023-09-07T01:07:17;17.02;;;9.75;;
78410;SDS011;67706;51.074;-1.796;2023-09-07T01:09:46;12.70;;;9.23;;
78410;SDS011;67706;51.074;-1.796;2023-09-07T01:12:17;16.80;;;8.73;;
78410;SDS011;67706;51.074;-1.796;2023-09-07T01:14:43;12.75;;;8.73;;
78410;SDS011;67706;51.074;-1.796;2023-09-07T01:17:11;17.92;;;9.43;;
78410;SDS011;67706;51.074;-1.796;2023-09-07T01:19:38;18.33;;;9.85;;
78410;SDS011;67706;51.074;-1.796;2023-09-07T01:22:05;15.60;;;9.55;;
78410;SDS011;67706;51.074;-1.796;2023-09-07T01:24:32;15.63;;;9.38;;
78410;SDS011;67706;51.074;-1.796;2023-09-07T01:27:00;15.20;;;9.35;;
78410;SDS011;67706;51.074;-1.796;2023-09-07T01:29:28;16.65;;;10.48;;
78410;SDS011;67706;51.074;-1.796;2023-09-07T01:31:54;15.98;;;9.90;;
78410;SDS011;67706;51.074;-1.796;2023-09-07T01:34:20;14.05;;;9.43;;
78410;SDS011;67706;51.074;-1.796;2023-09-07T01:36:46;15.07;;;8.63;;
78410;SDS011;67706;51.074;-1.796;2023-09-07T01:39:13;15.98;;;9.68;;
78410;SDS011;67706;51.074;-1.796;2023-09-07T01:41:39;15.68;;;9.68;;
78410;SDS011;67706;51.074;-1.796;2023-09-07T01:44:05;16.48;;;8.90;;
78410;SDS011;67706;51.074;-1.796;2023-09-07T01:46:31;15.63;;;9.70;;
78410;SDS011;67706;51.074;-1.796;2023-09-07T01:48:57;15.80;;;9.32;;
78410;SDS011;67706;51.074;-1.796;2023-09-07T01:51:23;16.02;;;8.93;;
78410;SDS011;67706;51.074;-1.796;2023-09-07T01:53:52;14.60;;;8.85;;
78410;SDS011;67706;51.074;-1.796;2023-09-07T01:56:19;14.45;;;9.02;;
78410;SDS011;67706;51.074;-1.796;2023-09-07T01:58:45;15.90;;;8.93;;
78410;SDS011;67706;51.074;-1.796;2023-09-07T02:01:20;17.20;;;8.77;;
78410;SDS011;67706;51.074;-1.796;2023-09-07T02:03:47;16.40;;;9.30;;
78410;SDS011;67706;51.074;-1.796;2023-09-07T02:06:13;14.20;;;9.48;;
78410;SDS011;67706;51.074;-1.796;2023-09-07T02:08:39;18.45;;;9.20;;
78410;SDS011;67706;51.074;-1.796;2023-09-07T02:11:05;13.40;;;8.93;;
78410;SDS011;67706;51.074;-1.796;2023-09-07T02:13:32;14.85;;;9.45;;
78410;SDS011;67706;51.074;-1.796;2023-09-07T02:15:58;15.63;;;9.88;;
78410;SDS011;67706;51.074;-1.796;2023-09-07T02:18:24;15.73;;;9.07;;
78410;SDS011;67706;51.074;-1.796;2023-09-07T02:20:50;20.83;;;9.38;;
78410;SDS011;67706;51.074;-1.796;2023-09-07T02:23:16;13.85;;;9.75;;
78410;SDS011;67706;51.074;-1.796;2023-09-07T02:25:42;16.20;;;9.80;;
78410;SDS011;67706;51.074;-1.796;2023-09-07T02:28:08;18.55;;;10.30;;
78410;SDS011;67706;51.074;-1.796;2023-09-07T02:30:35;19.95;;;10.05;;
78410;SDS011;67706;51.074;-1.796;2023-09-07T02:33:00;18.77;;;9.63;;
78410;SDS011;67706;51.074;-1.796;2023-09-07T02:35:26;16.85;;;9.20;;
78410;SDS011;67706;51.074;-1.796;2023-09-07T02:37:53;14.70;;;9.40;;
78410;SDS011;67706;51.074;-1.796;2023-09-07T02:40:19;18.30;;;8.95;;
78410;SDS011;67706;51.074;-1.796;2023-09-07T02:42:45;17.25;;;9.60;;
78410;SDS011;67706;51.074;-1.796;2023-09-07T02:45:11;19.17;;;8.98;;
78410;SDS011;67706;51.074;-1.796;2023-09-07T02:47:38;16.48;;;9.90;;
78410;SDS011;67706;51.074;-1.796;2023-09-07T02:50:05;14.98;;;10.02;;
78410;SDS011;67706;51.074;-1.796;2023-09-07T02:52:31;15.43;;;9.98;;
78410;SDS011;67706;51.074;-1.796;2023-09-07T02:54:57;17.52;;;9.85;;
78410;SDS011;67706;51.074;-1.796;2023-09-07T02:57:23;18.02;;;8.93;;
78410;SDS011;67706;51.074;-1.796;2023-09-07T02:59:49;18.38;;;10.02;;
78410;SDS011;67706;51.074;-1.796;2023-09-07T03:02:15;16.67;;;10.30;;
78410;SDS011;67706;51.074;-1.796;2023-09-07T03:04:41;18.98;;;9.70;;
78410;SDS011;67706;51.074;-1.796;2023-09-07T03:07:07;18.25;;;10.68;;
78410;SDS011;67706;51.074;-1.796;2023-09-07T03:09:34;20.17;;;10.63;;
78410;SDS011;67706;51.074;-1.796;2023-09-07T03:12:00;20.85;;;9.63;;
78410;SDS011;67706;51.074;-1.796;2023-09-07T03:14:26;16.92;;;9.43;;
78410;SDS011;67706;51.074;-1.796;2023-09-07T03:16:52;17.58;;;10.13;;
78410;SDS011;67706;51.074;-1.796;2023-09-07T03:19:19;17.35;;;9.60;;
78410;SDS011;67706;51.074;-1.796;2023-09-07T03:21:46;18.63;;;10.10;;
78410;SDS011;67706;51.074;-1.796;2023-09-07T03:24:12;19.98;;;9.88;;
78410;SDS011;67706;51.074;-1.796;2023-09-07T03:26:40;16.73;;;9.38;;
78410;SDS011;67706;51.074;-1.796;2023-09-07T03:29:06;17.13;;;9.45;;
78410;SDS011;67706;51.074;-1.796;2023-09-07T03:31:32;18.00;;;9.32;;
78410;SDS011;67706;51.074;-1.796;2023-09-07T03:33:58;16.02;;;9.35;;
78410;SDS011;67706;51.074;-1.796;2023-09-07T03:36:24;17.73;;;9.50;;
78410;SDS011;67706;51.074;-1.796;2023-09-07T03:38:51;18.25;;;9.35;;
78410;SDS011;67706;51.074;-1.796;2023-09-07T03:41:17;15.43;;;9.57;;
78410;SDS011;67706;51.074;-1.796;2023-09-07T03:43:43;17.92;;;9.93;;
78410;SDS011;67706;51.074;-1.796;2023-09-07T03:46:09;19.30;;;9.95;;
78410;SDS011;67706;51.074;-1.796;2023-09-07T03:48:35;16.77;;;9.95;;
78410;SDS011;67706;51.074;-1.796;2023-09-07T03:51:04;19.75;;;10.30;;
78410;SDS011;67706;51.074;-1.796;2023-09-07T03:53:31;18.65;;;10.00;;
78410;SDS011;67706;51.074;-1.796;2023-09-07T03:55:57;17.33;;;9.98;;
78410;SDS011;67706;51.074;-1.796;2023-09-07T03:58:23;18.52;;;10.07;;
78410;SDS011;67706;51.074;-1.796;2023-09-07T04:00:49;17.80;;;9.85;;
78410;SDS011;67706;51.074;-1.796;2023-09-07T04:03:15;19.55;;;11.68;;
78410;SDS011;67706;51.074;-1.796;2023-09-07T04:08:07;27.48;;;15.23;;
78410;SDS011;67706;51.074;-1.796;2023-09-07T04:10:35;24.33;;;13.82;;
78410;SDS011;67706;51.074;-1.796;2023-09-07T04:13:03;23.13;;;13.60;;
78410;SDS011;67706;51.074;-1.796;2023-09-07T04:15:29;22.83;;;14.75;;
78410;SDS011;67706;51.074;-1.796;2023-09-07T04:17:56;23.67;;;15.10;;
78410;SDS011;67706;51.074;-1.796;2023-09-07T04:20:22;27.15;;;15.55;;
78410;SDS011;67706;51.074;-1.796;2023-09-07T04:22:49;26.48;;;15.30;;
78410;SDS011;67706;51.074;-1.796;2023-09-07T04:25:15;22.85;;;15.05;;
78410;SDS011;67706;51.074;-1.796;2023-09-07T04:27:41;20.42;;;13.80;;
78410;SDS011;67706;51.074;-1.796;2023-09-07T04:30:08;24.15;;;13.73;;
78410;SDS011;67706;51.074;-1.796;2023-09-07T04:32:35;22.95;;;13.63;;
78410;SDS011;67706;51.074;-1.796;2023-09-07T04:35:01;22.10;;;13.98;;
78410;SDS011;67706;51.074;-1.796;2023-09-07T04:37:27;27.08;;;14.30;;
78410;SDS011;67706;51.074;-1.796;2023-09-07T04:42:19;23.23;;;14.82;;
78410;SDS011;67706;51.074;-1.796;2023-09-07T04:44:46;26.08;;;14.75;;
78410;SDS011;67706;51.074;-1.796;2023-09-07T04:47:13;25.70;;;15.05;;
78410;SDS011;67706;51.074;-1.796;2023-09-07T04:49:39;29.25;;;16.48;;
78410;SDS011;67706;51.074;-1.796;2023-09-07T04:52:05;25.50;;;16.35;;
78410;SDS011;67706;51.074;-1.796;2023-09-07T04:54:34;27.55;;;16.13;;
78410;SDS011;67706;51.074;-1.796;2023-09-07T04:57:05;28.73;;;17.38;;
78410;SDS011;67706;51.074;-1.796;2023-09-07T04:59:31;27.67;;;16.98;;
78410;SDS011;67706;51.074;-1.796;2023-09-07T05:01:59;30.58;;;17.80;;
78410;SDS011;67706;51.074;-1.796;2023-09-07T05:04:26;26.02;;;16.73;;
78410;SDS011;67706;51.074;-1.796;2023-09-07T05:06:53;30.38;;;17.90;;
78410;SDS011;67706;51.074;-1.796;2023-09-07T05:09:19;27.40;;;17.45;;
78410;SDS011;67706;51.074;-1.796;2023-09-07T05:11:45;28.60;;;16.73;;
78410;SDS011;67706;51.074;-1.796;2023-09-07T05:14:11;28.38;;;18.40;;
78410;SDS011;67706;51.074;-1.796;2023-09-07T05:16:37;31.75;;;18.92;;
78410;SDS011;67706;51.074;-1.796;2023-09-07T05:19:03;30.33;;;18.75;;
78410;SDS011;67706;51.074;-1.796;2023-09-07T05:21:30;32.33;;;17.67;;
78410;SDS011;67706;51.074;-1.796;2023-09-07T05:23:56;37.35;;;21.25;;
78410;SDS011;67706;51.074;-1.796;2023-09-07T05:26:22;33.80;;;19.92;;
78410;SDS011;67706;51.074;-1.796;2023-09-07T05:28:49;34.20;;;20.67;;
78410;SDS011;67706;51.074;-1.796;2023-09-07T05:31:15;32.80;;;20.15;;
78410;SDS011;67706;51.074;-1.796;2023-09-07T05:33:42;39.70;;;21.80;;
78410;SDS011;67706;51.074;-1.796;2023-09-07T05:36:08;42.70;;;23.15;;
78410;SDS011;67706;51.074;-1.796;2023-09-07T05:38:34;38.85;;;22.33;;
78410;SDS011;67706;51.074;-1.796;2023-09-07T05:41:00;41.10;;;21.27;;
78410;SDS011;67706;51.074;-1.796;2023-09-07T05:43:27;46.60;;;24.15;;
78410;SDS011;67706;51.074;-1.796;2023-09-07T05:45:53;37.33;;;22.35;;
78410;SDS011;67706;51.074;-1.796;2023-09-07T05:48:19;45.78;;;27.35;;
78410;SDS011;67706;51.074;-1.796;2023-09-07T05:50:45;48.70;;;27.33;;
78410;SDS011;67706;51.074;-1.796;2023-09-07T05:53:11;53.03;;;28.83;;
78410;SDS011;67706;51.074;-1.796;2023-09-07T05:55:37;47.92;;;27.83;;
78410;SDS011;67706;51.074;-1.796;2023-09-07T05:58:04;58.08;;;29.55;;
78410;SDS011;67706;51.074;-1.796;2023-09-07T06:00:31;54.08;;;29.08;;
78410;SDS011;67706;51.074;-1.796;2023-09-07T06:02:57;55.30;;;29.88;;
78410;SDS011;67706;51.074;-1.796;2023-09-07T06:05:23;51.72;;;29.00;;
78410;SDS011;67706;51.074;-1.796;2023-09-07T06:07:49;50.67;;;29.55;;
78410;SDS011;67706;51.074;-1.796;2023-09-07T06:10:16;55.72;;;30.23;;
78410;SDS011;67706;51.074;-1.796;2023-09-07T06:12:43;61.58;;;31.20;;
78410;SDS011;67706;51.074;-1.796;2023-09-07T06:15:09;54.38;;;29.77;;
78410;SDS011;67706;51.074;-1.796;2023-09-07T06:17:36;54.75;;;31.08;;
78410;SDS011;67706;51.074;-1.796;2023-09-07T06:20:02;55.58;;;29.70;;
78410;SDS011;67706;51.074;-1.796;2023-09-07T06:22:30;54.75;;;30.48;;
78410;SDS011;67706;51.074;-1.796;2023-09-07T06:24:56;53.67;;;29.52;;
78410;SDS011;67706;51.074;-1.796;2023-09-07T06:27:22;57.20;;;30.60;;
78410;SDS011;67706;51.074;-1.796;2023-09-07T06:29:48;62.30;;;31.88;;
78410;SDS011;67706;51.074;-1.796;2023-09-07T06:32:16;56.95;;;31.80;;
78410;SDS011;67706;51.074;-1.796;2023-09-07T06:34:42;56.25;;;30.88;;
78410;SDS011;67706;51.074;-1.796;2023-09-07T06:37:08;57.00;;;30.85;;
78410;SDS011;67706;51.074;-1.796;2023-09-07T06:39:34;57.38;;;31.95;;
78410;SDS011;67706;51.074;-1.796;2023-09-07T06:42:00;58.20;;;31.52;;
78410;SDS011;67706;51.074;-1.796;2023-09-07T06:44:26;58.42;;;32.90;;
78410;SDS011;67706;51.074;-1.796;2023-09-07T06:46:53;57.22;;;32.75;;
78410;SDS011;67706;51.074;-1.796;2023-09-07T06:49:19;58.25;;;32.20;;
78410;SDS011;67706;51.074;-1.796;2023-09-07T06:51:45;61.25;;;32.65;;
78410;SDS011;67706;51.074;-1.796;2023-09-07T06:54:12;58.85;;;32.88;;
78410;SDS011;67706;51.074;-1.796;2023-09-07T06:56:38;58.58;;;31.95;;
78410;SDS011;67706;51.074;-1.796;2023-09-07T06:59:05;56.97;;;32.00;;
78410;SDS011;67706;51.074;-1.796;2023-09-07T07:01:31;61.78;;;31.92;;
78410;SDS011;67706;51.074;-1.796;2023-09-07T07:03:58;54.42;;;31.65;;
78410;SDS011;67706;51.074;-1.796;2023-09-07T07:06:24;60.95;;;31.75;;
78410;SDS011;67706;51.074;-1.796;2023-09-07T07:08:51;57.15;;;30.80;;
78410;SDS011;67706;51.074;-1.796;2023-09-07T07:11:17;57.85;;;30.73;;
78410;SDS011;67706;51.074;-1.796;2023-09-07T07:13:43;55.05;;;30.98;;
78410;SDS011;67706;51.074;-1.796;2023-09-07T07:16:09;60.60;;;32.78;;
78410;SDS011;67706;51.074;-1.796;2023-09-07T07:18:35;60.17;;;33.08;;
78410;SDS011;67706;51.074;-1.796;2023-09-07T07:21:02;57.30;;;31.90;;
78410;SDS011;67706;51.074;-1.796;2023-09-07T07:23:28;60.17;;;30.70;;
78410;SDS011;67706;51.074;-1.796;2023-09-07T07:25:54;58.70;;;31.02;;
78410;SDS011;67706;51.074;-1.796;2023-09-07T07:28:20;56.55;;;32.28;;
78410;SDS011;67706;51.074;-1.796;2023-09-07T07:30:46;53.17;;;29.80;;
78410;SDS011;67706;51.074;-1.796;2023-09-07T07:33:13;52.67;;;29.45;;
78410;SDS011;67706;51.074;-1.796;2023-09-07T07:35:39;58.15;;;30.80;;
78410;SDS011;67706;51.074;-1.796;2023-09-07T07:38:06;55.70;;;32.08;;
78410;SDS011;67706;51.074;-1.796;2023-09-07T07:40:32;57.00;;;29.17;;
78410;SDS011;67706;51.074;-1.796;2023-09-07T07:42:59;55.03;;;29.00;;
78410;SDS011;67706;51.074;-1.796;2023-09-07T07:45:25;51.42;;;28.70;;
78410;SDS011;67706;51.074;-1.796;2023-09-07T07:47:51;52.70;;;29.42;;
78410;SDS011;67706;51.074;-1.796;2023-09-07T07:50:18;47.70;;;28.45;;
78410;SDS011;67706;51.074;-1.796;2023-09-07T07:52:45;53.72;;;29.63;;
78410;SDS011;67706;51.074;-1.796;2023-09-07T07:55:11;54.65;;;30.92;;
78410;SDS011;67706;51.074;-1.796;2023-09-07T07:57:38;54.70;;;29.77;;
78410;SDS011;67706;51.074;-1.796;2023-09-07T08:00:04;52.83;;;29.55;;
78410;SDS011;67706;51.074;-1.796;2023-09-07T08:02:31;50.10;;;27.80;;
78410;SDS011;67706;51.074;-1.796;2023-09-07T08:04:57;54.78;;;28.75;;
78410;SDS011;67706;51.074;-1.796;2023-09-07T08:07:24;51.92;;;28.90;;
78410;SDS011;67706;51.074;-1.796;2023-09-07T08:09:51;49.63;;;29.85;;
78410;SDS011;67706;51.074;-1.796;2023-09-07T08:12:18;50.40;;;29.40;;
78410;SDS011;67706;51.074;-1.796;2023-09-07T08:14:44;49.13;;;28.00;;
78410;SDS011;67706;51.074;-1.796;2023-09-07T08:17:10;50.70;;;28.92;;
78410;SDS011;67706;51.074;-1.796;2023-09-07T08:19:36;51.13;;;29.83;;
78410;SDS011;67706;51.074;-1.796;2023-09-07T08:22:03;51.97;;;29.17;;
78410;SDS011;67706;51.074;-1.796;2023-09-07T08:24:30;49.67;;;28.00;;
78410;SDS011;67706;51.074;-1.796;2023-09-07T08:26:56;47.03;;;28.35;;
78410;SDS011;67706;51.074;-1.796;2023-09-07T08:29:25;49.17;;;29.42;;
78410;SDS011;67706;51.074;-1.796;2023-09-07T08:31:52;50.47;;;28.75;;
78410;SDS011;67706;51.074;-1.796;2023-09-07T08:34:18;50.38;;;28.88;;
78410;SDS011;67706;51.074;-1.796;2023-09-07T08:36:46;48.45;;;28.02;;
78410;SDS011;67706;51.074;-1.796;2023-09-07T08:39:12;47.40;;;28.17;;
78410;SDS011;67706;51.074;-1.796;2023-09-07T08:41:38;44.42;;;26.67;;
78410;SDS011;67706;51.074;-1.796;2023-09-07T08:44:08;44.22;;;27.10;;
78410;SDS011;67706;51.074;-1.796;2023-09-07T08:46:36;44.60;;;25.95;;
78410;SDS011;67706;51.074;-1.796;2023-09-07T08:49:02;44.03;;;24.90;;
78410;SDS011;67706;51.074;-1.796;2023-09-07T08:51:30;47.00;;;25.63;;
78410;SDS011;67706;51.074;-1.796;2023-09-07T08:53:57;46.13;;;25.05;;
78410;SDS011;67706;51.074;-1.796;2023-09-07T08:56:23;42.25;;;24.52;;
78410;SDS011;67706;51.074;-1.796;2023-09-07T08:58:50;40.83;;;23.83;;
78410;SDS011;67706;51.074;-1.796;2023-09-07T09:01:16;35.78;;;22.25;;
78410;SDS011;67706;51.074;-1.796;2023-09-07T09:03:42;39.95;;;23.20;;
78410;SDS011;67706;51.074;-1.796;2023-09-07T09:06:09;38.40;;;21.27;;
78410;SDS011;67706;51.074;-1.796;2023-09-07T09:08:43;37.13;;;22.27;;
78410;SDS011;67706;51.074;-1.796;2023-09-07T09:11:09;37.83;;;21.80;;
78410;SDS011;67706;51.074;-1.796;2023-09-07T09:13:36;32.03;;;19.80;;
78410;SDS011;67706;51.074;-1.796;2023-09-07T09:16:02;36.72;;;21.00;;
78410;SDS011;67706;51.074;-1.796;2023-09-07T09:18:28;34.97;;;20.73;;
78410;SDS011;67706;51.074;-1.796;2023-09-07T09:20:55;32.65;;;19.85;;
78410;SDS011;67706;51.074;-1.796;2023-09-07T09:23:24;33.10;;;18.30;;
78410;SDS011;67706;51.074;-1.796;2023-09-07T09:25:50;34.08;;;17.02;;
78410;SDS011;67706;51.074;-1.796;2023-09-07T09:28:16;28.63;;;18.77;;
78410;SDS011;67706;51.074;-1.796;2023-09-07T09:30:42;34.65;;;19.23;;
78410;SDS011;67706;51.074;-1.796;2023-09-07T09:33:09;29.42;;;18.90;;
78410;SDS011;67706;51.074;-1.796;2023-09-07T09:35:36;23.85;;;15.27;;
78410;SDS011;67706;51.074;-1.796;2023-09-07T09:38:04;27.23;;;14.98;;
78410;SDS011;67706;51.074;-1.796;2023-09-07T09:40:30;25.15;;;15.75;;
78410;SDS011;67706;51.074;-1.796;2023-09-07T09:42:56;25.25;;;16.35;;
78410;SDS011;67706;51.074;-1.796;2023-09-07T09:45:23;23.00;;;14.27;;
78410;SDS011;67706;51.074;-1.796;2023-09-07T09:47:52;23.88;;;13.93;;
78410;SDS011;67706;51.074;-1.796;2023-09-07T09:50:21;21.98;;;12.68;;
78410;SDS011;67706;51.074;-1.796;2023-09-07T09:52:48;20.15;;;12.60;;
78410;SDS011;67706;51.074;-1.796;2023-09-07T09:55:15;21.13;;;13.45;;
78410;SDS011;67706;51.074;-1.796;2023-09-07T09:57:41;22.88;;;13.32;;
78410;SDS011;67706;51.074;-1.796;2023-09-07T10:00:07;25.05;;;14.52;;
78410;SDS011;67706;51.074;-1.796;2023-09-07T10:02:51;23.77;;;15.35;;
78410;SDS011;67706;51.074;-1.796;2023-09-07T10:05:23;23.73;;;14.70;;
78410;SDS011;67706;51.074;-1.796;2023-09-07T10:07:50;25.65;;;13.57;;
78410;SDS011;67706;51.074;-1.796;2023-09-07T10:10:18;18.42;;;11.35;;
78410;SDS011;67706;51.074;-1.796;2023-09-07T10:12:50;18.50;;;10.90;;
78410;SDS011;67706;51.074;-1.796;2023-09-07T10:15:21;24.60;;;14.20;;
78410;SDS011;67706;51.074;-1.796;2023-09-07T10:17:48;25.58;;;14.50;;
78410;SDS011;67706;51.074;-1.796;2023-09-07T10:20:16;19.52;;;12.82;;
78410;SDS011;67706;51.074;-1.796;2023-09-07T10:22:42;20.73;;;12.45;;
78410;SDS011;67706;51.074;-1.796;2023-09-07T10:25:18;21.20;;;13.35;;
78410;SDS011;67706;51.074;-1.796;2023-09-07T10:27:45;18.17;;;12.10;;
78410;SDS011;67706;51.074;-1.796;2023-09-07T10:30:12;20.67;;;11.43;;
78410;SDS011;67706;51.074;-1.796;2023-09-07T10:32:41;17.55;;;10.02;;
78410;SDS011;67706;51.074;-1.796;2023-09-07T10:35:12;15.05;;;10.07;;
78410;SDS011;67706;51.074;-1.796;2023-09-07T10:37:41;17.35;;;10.20;;
78410;SDS011;67706;51.074;-1.796;2023-09-07T10:40:10;15.73;;;10.98;;
78410;SDS011;67706;51.074;-1.796;2023-09-07T10:42:37;12.40;;;8.40;;
78410;SDS011;67706;51.074;-1.796;2023-09-07T10:45:10;14.43;;;7.90;;
78410;SDS011;67706;51.074;-1.796;2023-09-07T10:47:40;15.50;;;7.57;;
78410;SDS011;67706;51.074;-1.796;2023-09-07T10:50:07;11.75;;;6.93;;
78410;SDS011;67706;51.074;-1.796;2023-09-07T10:52:33;10.32;;;6.68;;
78410;SDS011;67706;51.074;-1.796;2023-09-07T10:54:59;10.60;;;6.00;;
78410;SDS011;67706;51.074;-1.796;2023-09-07T10:57:25;10.45;;;6.13;;
78410;SDS011;67706;51.074;-1.796;2023-09-07T10:59:52;9.77;;;6.40;;
78410;SDS011;67706;51.074;-1.796;2023-09-07T11:02:20;9.07;;;6.10;;
78410;SDS011;67706;51.074;-1.796;2023-09-07T11:04:46;9.18;;;6.07;;
78410;SDS011;67706;51.074;-1.796;2023-09-07T11:07:12;9.10;;;5.68;;
78410;SDS011;67706;51.074;-1.796;2023-09-07T11:09:39;6.07;;;4.80;;
78410;SDS011;67706;51.074;-1.796;2023-09-07T11:12:06;8.73;;;5.40;;
78410;SDS011;67706;51.074;-1.796;2023-09-07T11:14:33;9.27;;;5.20;;
78410;SDS011;67706;51.074;-1.796;2023-09-07T11:17:01;7.93;;;5.90;;
78410;SDS011;67706;51.074;-1.796;2023-09-07T11:19:31;8.23;;;5.18;;
78410;SDS011;67706;51.074;-1.796;2023-09-07T11:21:57;7.00;;;4.68;;
78410;SDS011;67706;51.074;-1.796;2023-09-07T11:24:23;7.60;;;4.88;;
78410;SDS011;67706;51.074;-1.796;2023-09-07T11:26:51;9.55;;;4.70;;
78410;SDS011;67706;51.074;-1.796;2023-09-07T11:29:17;8.40;;;4.53;;
78410;SDS011;67706;51.074;-1.796;2023-09-07T11:31:44;6.88;;;4.85;;
78410;SDS011;67706;51.074;-1.796;2023-09-07T11:34:11;7.35;;;4.70;;
78410;SDS011;67706;51.074;-1.796;2023-09-07T11:36:38;5.82;;;3.95;;
78410;SDS011;67706;51.074;-1.796;2023-09-07T11:39:05;6.00;;;3.67;;
78410;SDS011;67706;51.074;-1.796;2023-09-07T11:41:37;6.57;;;4.35;;
78410;SDS011;67706;51.074;-1.796;2023-09-07T11:44:03;7.63;;;4.20;;
78410;SDS011;67706;51.074;-1.796;2023-09-07T11:46:29;6.45;;;3.67;;
78410;SDS011;67706;51.074;-1.796;2023-09-07T11:48:56;6.40;;;4.53;;
78410;SDS011;67706;51.074;-1.796;2023-09-07T11:51:22;8.80;;;3.83;;
78410;SDS011;67706;51.074;-1.796;2023-09-07T11:53:49;6.43;;;3.88;;
78410;SDS011;67706;51.074;-1.796;2023-09-07T11:56:15;8.18;;;4.55;;
78410;SDS011;67706;51.074;-1.796;2023-09-07T11:58:41;6.15;;;3.60;;
78410;SDS011;67706;51.074;-1.796;2023-09-07T12:01:09;6.75;;;4.22;;
78410;SDS011;67706;51.074;-1.796;2023-09-07T12:03:35;4.88;;;3.70;;
78410;SDS011;67706;51.074;-1.796;2023-09-07T12:06:01;5.25;;;3.85;;
78410;SDS011;67706;51.074;-1.796;2023-09-07T12:08:28;8.13;;;3.40;;
78410;SDS011;67706;51.074;-1.796;2023-09-07T12:10:54;5.75;;;3.45;;
78410;SDS011;67706;51.074;-1.796;2023-09-07T12:13:20;5.35;;;3.47;;
78410;SDS011;67706;51.074;-1.796;2023-09-07T12:15:47;5.18;;;3.55;;
78410;SDS011;67706;51.074;-1.796;2023-09-07T12:18:13;3.92;;;3.25;;
78410;SDS011;67706;51.074;-1.796;2023-09-07T12:20:39;6.32;;;3.58;;
78410;SDS011;67706;51.074;-1.796;2023-09-07T12:23:05;5.55;;;3.70;;
78410;SDS011;67706;51.074;-1.796;2023-09-07T12:25:32;6.57;;;3.63;;
78410;SDS011;67706;51.074;-1.796;2023-09-07T12:27:58;5.82;;;3.75;;
78410;SDS011;67706;51.074;-1.796;2023-09-07T12:30:24;6.57;;;3.47;;
78410;SDS011;67706;51.074;-1.796;2023-09-07T12:32:50;5.25;;;3.38;;
78410;SDS011;67706;51.074;-1.796;2023-09-07T12:35:16;5.78;;;3.85;;
78410;SDS011;67706;51.074;-1.796;2023-09-07T12:37:43;7.05;;;3.90;;
78410;SDS011;67706;51.074;-1.796;2023-09-07T12:40:10;6.43;;;3.25;;
78410;SDS011;67706;51.074;-1.796;2023-09-07T12:42:39;6.70;;;3.20;;
78410;SDS011;67706;51.074;-1.796;2023-09-07T12:45:06;4.22;;;3.33;;
78410;SDS011;67706;51.074;-1.796;2023-09-07T12:47:33;6.07;;;3.20;;
78410;SDS011;67706;51.074;-1.796;2023-09-07T12:49:59;8.07;;;3.40;;
78410;SDS011;67706;51.074;-1.796;2023-09-07T12:52:25;5.40;;;3.50;;
78410;SDS011;67706;51.074;-1.796;2023-09-07T12:54:51;4.72;;;3.22;;
78410;SDS011;67706;51.074;-1.796;2023-09-07T12:57:17;5.95;;;3.47;;
78410;SDS011;67706;51.074;-1.796;2023-09-07T12:59:44;9.30;;;3.83;;
78410;SDS011;67706;51.074;-1.796;2023-09-07T13:02:10;6.85;;;3.33;;
78410;SDS011;67706;51.074;-1.796;2023-09-07T13:04:37;5.55;;;3.42;;
78410;SDS011;67706;51.074;-1.796;2023-09-07T13:07:03;6.15;;;3.03;;
78410;SDS011;67706;51.074;-1.796;2023-09-07T13:09:29;5.35;;;3.22;;
78410;SDS011;67706;51.074;-1.796;2023-09-07T13:11:55;4.60;;;3.05;;
78410;SDS011;67706;51.074;-1.796;2023-09-07T13:14:21;4.65;;;3.40;;
78410;SDS011;67706;51.074;-1.796;2023-09-07T13:16:48;4.55;;;3.10;;
78410;SDS011;67706;51.074;-1.796;2023-09-07T13:19:15;4.85;;;3.15;;
78410;SDS011;67706;51.074;-1.796;2023-09-07T13:21:41;5.97;;;3.22;;
78410;SDS011;67706;51.074;-1.796;2023-09-07T13:24:08;4.93;;;2.88;;
78410;SDS011;67706;51.074;-1.796;2023-09-07T13:26:34;6.35;;;3.17;;
78410;SDS011;67706;51.074;-1.796;2023-09-07T13:29:00;3.97;;;2.80;;
78410;SDS011;67706;51.074;-1.796;2023-09-07T13:31:26;4.75;;;2.78;;
78410;SDS011;67706;51.074;-1.796;2023-09-07T13:33:53;7.72;;;3.15;;
78410;SDS011;67706;51.074;-1.796;2023-09-07T13:36:19;6.72;;;3.10;;
78410;SDS011;67706;51.074;-1.796;2023-09-07T13:38:45;6.13;;;3.00;;
78410;SDS011;67706;51.074;-1.796;2023-09-07T13:41:11;6.78;;;2.83;;
78410;SDS011;67706;51.074;-1.796;2023-09-07T13:43:37;3.88;;;2.47;;
78410;SDS011;67706;51.074;-1.796;2023-09-07T13:46:03;5.50;;;3.20;;
78410;SDS011;67706;51.074;-1.796;2023-09-07T13:48:29;5.90;;;3.17;;
78410;SDS011;67706;51.074;-1.796;2023-09-07T13:50:58;6.82;;;3.13;;
78410;SDS011;67706;51.074;-1.796;2023-09-07T13:53:24;3.83;;;2.63;;
78410;SDS011;67706;51.074;-1.796;2023-09-07T13:55:50;4.18;;;2.55;;
78410;SDS011;67706;51.074;-1.796;2023-09-07T13:58:16;4.10;;;2.83;;
78410;SDS011;67706;51.074;-1.796;2023-09-07T14:00:42;4.10;;;2.72;;
78410;SDS011;67706;51.074;-1.796;2023-09-07T14:03:08;4.47;;;2.70;;
78410;SDS011;67706;51.074;-1.796;2023-09-07T14:05:34;4.40;;;2.35;;
78410;SDS011;67706;51.074;-1.796;2023-09-07T14:08:01;7.65;;;2.80;;
78410;SDS011;67706;51.074;-1.796;2023-09-07T14:10:27;3.95;;;2.58;;
78410;SDS011;67706;51.074;-1.796;2023-09-07T14:12:53;5.03;;;2.50;;
78410;SDS011;67706;51.074;-1.796;2023-09-07T14:15:19;6.20;;;2.60;;
78410;SDS011;67706;51.074;-1.796;2023-09-07T14:17:45;6.28;;;2.70;;
78410;SDS011;67706;51.074;-1.796;2023-09-07T14:20:11;5.60;;;2.40;;